sensor_id;sensor_type;location;lat;lon;timestamp;temperature;humidity
54930;DHT22;40833;53.238;6.576;2023-08-24T00:01:36;15.00;99.90
54930;DHT22;40833;53.238;6.576;2023-08-24T00:04:02;14.90;99.90
54930;DHT22;40833;53.238;6.576;2023-08-24T00:06:28;14.90;99.90
54930;DHT22;40833;53.238;6.576;2023-08-24T00:08:54;14.90;99.90
54930;DHT22;40833;53.238;6.576;2023-08-24T00:11:20;14.90;99.90
54930;DHT22;40833;53.238;6.576;2023-08-24T00:13:46;14.90;99.90
54930;DHT22;40833;53.238;6.576;2023-08-24T00:16:19;14.80;99.90
54930;DHT22;40833;53.238;6.576;2023-08-24T00:18:45;14.80;99.90
54930;DHT22;40833;53.238;6.576;2023-08-24T00:21:15;14.80;99.90
54930;DHT22;40833;53.238;6.576;2023-08-24T00:23:48;14.80;99.90
54930;DHT22;40833;53.238;6.576;2023-08-24T00:26:14;14.80;99.90
54930;DHT22;40833;53.238;6.576;2023-08-24T00:28:42;14.80;99.90
54930;DHT22;40833;53.238;6.576;2023-08-24T00:31:08;14.80;99.90
54930;DHT22;40833;53.238;6.576;2023-08-24T00:33:34;14.80;99.90
54930;DHT22;40833;53.238;6.576;2023-08-24T00:36:03;14.80;99.90
54930;DHT22;40833;53.238;6.576;2023-08-24T00:38:29;14.80;99.90
54930;DHT22;40833;53.238;6.576;2023-08-24T00:40:56;14.80;99.90
54930;DHT22;40833;53.238;6.576;2023-08-24T00:43:22;14.90;99.90
54930;DHT22;40833;53.238;6.576;2023-08-24T00:45:55;14.90;99.90
54930;DHT22;40833;53.238;6.576;2023-08-24T00:48:22;14.90;99.90
54930;DHT22;40833;53.238;6.576;2023-08-24T00:51:01;14.90;99.90
54930;DHT22;40833;53.238;6.576;2023-08-24T00:53:29;15.00;99.90
54930;DHT22;40833;53.238;6.576;2023-08-24T00:55:56;15.00;99.90
54930;DHT22;40833;53.238;6.576;2023-08-24T00:58:22;15.00;99.90
54930;DHT22;40833;53.238;6.576;2023-08-24T01:00:58;15.00;99.90
54930;DHT22;40833;53.238;6.576;2023-08-24T01:05:51;15.00;99.90
54930;DHT22;40833;53.238;6.576;2023-08-24T01:08:17;15.10;99.90
54930;DHT22;40833;53.238;6.576;2023-08-24T01:11:09;15.10;99.90
54930;DHT22;40833;53.238;6.576;2023-08-24T01:13:59;15.10;99.90
54930;DHT22;40833;53.238;6.576;2023-08-24T01:16:29;15.10;99.90
54930;DHT22;40833;53.238;6.576;2023-08-24T01:18:59;15.10;99.90
54930;DHT22;40833;53.238;6.576;2023-08-24T01:21:26;15.10;99.90
54930;DHT22;40833;53.238;6.576;2023-08-24T01:24:14;15.10;99.90
54930;DHT22;40833;53.238;6.576;2023-08-24T01:26:43;15.20;99.90
54930;DHT22;40833;53.238;6.576;2023-08-24T01:29:09;15.20;99.90
54930;DHT22;40833;53.238;6.576;2023-08-24T01:31:36;15.10;99.90
54930;DHT22;40833;53.238;6.576;2023-08-24T01:34:01;15.10;99.90
54930;DHT22;40833;53.238;6.576;2023-08-24T01:36:27;15.20;99.90
54930;DHT22;40833;53.238;6.576;2023-08-24T01:39:12;15.10;99.90
54930;DHT22;40833;53.238;6.576;2023-08-24T01:41:43;15.10;99.90
54930;DHT22;40833;53.238;6.576;2023-08-24T01:44:13;15.10;99.90
54930;DHT22;40833;53.238;6.576;2023-08-24T01:46:42;15.10;99.90
54930;DHT22;40833;53.238;6.576;2023-08-24T01:49:08;15.20;99.90
54930;DHT22;40833;53.238;6.576;2023-08-24T01:51:35;15.10;99.90
54930;DHT22;40833;53.238;6.576;2023-08-24T01:54:01;15.10;99.90
54930;DHT22;40833;53.238;6.576;2023-08-24T01:56:27;15.10;99.90
54930;DHT22;40833;53.238;6.576;2023-08-24T01:58:52;15.10;99.90
54930;DHT22;40833;53.238;6.576;2023-08-24T02:01:18;15.10;99.90
54930;DHT22;40833;53.238;6.576;2023-08-24T02:03:43;15.10;99.90
54930;DHT22;40833;53.238;6.576;2023-08-24T02:06:09;15.00;99.90
54930;DHT22;40833;53.238;6.576;2023-08-24T02:08:35;15.00;99.90
54930;DHT22;40833;53.238;6.576;2023-08-24T02:11:01;15.00;99.90
54930;DHT22;40833;53.238;6.576;2023-08-24T02:13:27;15.10;99.90
54930;DHT22;40833;53.238;6.576;2023-08-24T02:16:05;15.00;99.90
54930;DHT22;40833;53.238;6.576;2023-08-24T02:18:32;15.10;99.90
54930;DHT22;40833;53.238;6.576;2023-08-24T02:20:58;15.10;99.90
54930;DHT22;40833;53.238;6.576;2023-08-24T02:23:23;15.10;99.90
54930;DHT22;40833;53.238;6.576;2023-08-24T02:25:49;15.20;99.90
54930;DHT22;40833;53.238;6.576;2023-08-24T02:28:15;15.20;99.90
54930;DHT22;40833;53.238;6.576;2023-08-24T02:30:40;15.20;99.90
54930;DHT22;40833;53.238;6.576;2023-08-24T02:33:06;15.20;99.90
54930;DHT22;40833;53.238;6.576;2023-08-24T02:35:32;15.20;99.90
54930;DHT22;40833;53.238;6.576;2023-08-24T02:37:57;15.30;99.90
54930;DHT22;40833;53.238;6.576;2023-08-24T02:40:23;15.30;99.90
54930;DHT22;40833;53.238;6.576;2023-08-24T02:42:49;15.30;99.90
54930;DHT22;40833;53.238;6.576;2023-08-24T02:45:14;15.30;99.90
54930;DHT22;40833;53.238;6.576;2023-08-24T02:47:40;15.40;99.90
54930;DHT22;40833;53.238;6.576;2023-08-24T02:50:06;15.40;99.90
54930;DHT22;40833;53.238;6.576;2023-08-24T02:52:32;15.40;99.90
54930;DHT22;40833;53.238;6.576;2023-08-24T02:54:58;15.40;99.90
54930;DHT22;40833;53.238;6.576;2023-08-24T02:57:24;15.40;99.90
54930;DHT22;40833;53.238;6.576;2023-08-24T02:59:50;15.50;99.90
54930;DHT22;40833;53.238;6.576;2023-08-24T03:02:16;15.40;99.90
54930;DHT22;40833;53.238;6.576;2023-08-24T03:04:42;15.50;99.90
54930;DHT22;40833;53.238;6.576;2023-08-24T03:07:07;15.50;99.90
54930;DHT22;40833;53.238;6.576;2023-08-24T03:09:35;15.50;99.90
54930;DHT22;40833;53.238;6.576;2023-08-24T03:12:02;15.50;99.90
54930;DHT22;40833;53.238;6.576;2023-08-24T03:14:28;15.40;99.90
54930;DHT22;40833;53.238;6.576;2023-08-24T03:16:53;15.40;99.90
54930;DHT22;40833;53.238;6.576;2023-08-24T03:19:19;15.40;99.90
54930;DHT22;40833;53.238;6.576;2023-08-24T03:21:45;15.40;99.90
54930;DHT22;40833;53.238;6.576;2023-08-24T03:24:11;15.30;99.90
54930;DHT22;40833;53.238;6.576;2023-08-24T03:26:36;15.30;99.90
54930;DHT22;40833;53.238;6.576;2023-08-24T03:29:02;15.30;99.90
54930;DHT22;40833;53.238;6.576;2023-08-24T03:31:28;15.20;99.90
54930;DHT22;40833;53.238;6.576;2023-08-24T03:33:54;15.20;99.90
54930;DHT22;40833;53.238;6.576;2023-08-24T03:36:20;15.10;99.90
54930;DHT22;40833;53.238;6.576;2023-08-24T03:38:46;15.10;99.90
54930;DHT22;40833;53.238;6.576;2023-08-24T03:41:12;15.10;99.90
54930;DHT22;40833;53.238;6.576;2023-08-24T03:43:37;15.10;99.90
54930;DHT22;40833;53.238;6.576;2023-08-24T03:46:04;15.20;99.90
54930;DHT22;40833;53.238;6.576;2023-08-24T03:48:31;15.20;99.90
54930;DHT22;40833;53.238;6.576;2023-08-24T03:50:57;15.30;99.90
54930;DHT22;40833;53.238;6.576;2023-08-24T03:53:23;15.30;99.90
54930;DHT22;40833;53.238;6.576;2023-08-24T03:55:54;15.30;99.90
54930;DHT22;40833;53.238;6.576;2023-08-24T03:58:20;15.30;99.90
54930;DHT22;40833;53.238;6.576;2023-08-24T04:00:46;15.30;99.90
54930;DHT22;40833;53.238;6.576;2023-08-24T04:03:12;15.30;99.90
54930;DHT22;40833;53.238;6.576;2023-08-24T04:05:38;15.30;99.90
54930;DHT22;40833;53.238;6.576;2023-08-24T04:08:04;15.40;99.90
54930;DHT22;40833;53.238;6.576;2023-08-24T04:10:30;15.40;99.90
54930;DHT22;40833;53.238;6.576;2023-08-24T04:12:56;15.30;99.90
54930;DHT22;40833;53.238;6.576;2023-08-24T04:15:22;15.30;99.90
54930;DHT22;40833;53.238;6.576;2023-08-24T04:17:48;15.30;99.90
54930;DHT22;40833;53.238;6.576;2023-08-24T04:20:14;15.30;99.90
54930;DHT22;40833;53.238;6.576;2023-08-24T04:22:41;15.30;99.90
54930;DHT22;40833;53.238;6.576;2023-08-24T04:25:07;15.20;99.90
54930;DHT22;40833;53.238;6.576;2023-08-24T04:27:33;15.20;99.90
54930;DHT22;40833;53.238;6.576;2023-08-24T04:29:59;15.20;99.90
54930;DHT22;40833;53.238;6.576;2023-08-24T04:32:27;15.20;99.90
54930;DHT22;40833;53.238;6.576;2023-08-24T04:34:53;15.20;99.90
54930;DHT22;40833;53.238;6.576;2023-08-24T04:37:18;15.10;99.90
54930;DHT22;40833;53.238;6.576;2023-08-24T04:39:44;15.10;99.90
54930;DHT22;40833;53.238;6.576;2023-08-24T04:42:10;15.10;99.90
54930;DHT22;40833;53.238;6.576;2023-08-24T04:44:35;15.10;99.90
54930;DHT22;40833;53.238;6.576;2023-08-24T04:47:01;15.00;99.90
54930;DHT22;40833;53.238;6.576;2023-08-24T04:49:27;15.10;99.90
54930;DHT22;40833;53.238;6.576;2023-08-24T04:51:54;15.00;99.90
54930;DHT22;40833;53.238;6.576;2023-08-24T04:54:19;15.00;99.90
54930;DHT22;40833;53.238;6.576;2023-08-24T04:56:45;15.00;99.90
54930;DHT22;40833;53.238;6.576;2023-08-24T04:59:11;14.90;99.90
54930;DHT22;40833;53.238;6.576;2023-08-24T05:01:36;14.90;99.90
54930;DHT22;40833;53.238;6.576;2023-08-24T05:04:02;14.90;99.90
54930;DHT22;40833;53.238;6.576;2023-08-24T05:06:28;14.80;99.90
54930;DHT22;40833;53.238;6.576;2023-08-24T05:08:54;14.80;99.90
54930;DHT22;40833;53.238;6.576;2023-08-24T05:11:22;14.80;99.90
54930;DHT22;40833;53.238;6.576;2023-08-24T05:13:52;14.80;99.90
54930;DHT22;40833;53.238;6.576;2023-08-24T05:16:17;14.80;99.90
54930;DHT22;40833;53.238;6.576;2023-08-24T05:18:43;14.90;99.90
54930;DHT22;40833;53.238;6.576;2023-08-24T05:21:09;14.90;99.90
54930;DHT22;40833;53.238;6.576;2023-08-24T05:23:35;15.00;99.90
54930;DHT22;40833;53.238;6.576;2023-08-24T05:26:02;15.00;99.90
54930;DHT22;40833;53.238;6.576;2023-08-24T05:28:29;15.00;99.90
54930;DHT22;40833;53.238;6.576;2023-08-24T05:30:55;15.10;99.90
54930;DHT22;40833;53.238;6.576;2023-08-24T05:33:23;15.10;99.90
54930;DHT22;40833;53.238;6.576;2023-08-24T05:35:50;15.10;99.90
54930;DHT22;40833;53.238;6.576;2023-08-24T05:40:47;15.20;99.90
54930;DHT22;40833;53.238;6.576;2023-08-24T05:43:13;15.40;99.90
54930;DHT22;40833;53.238;6.576;2023-08-24T05:45:40;15.50;99.90
54930;DHT22;40833;53.238;6.576;2023-08-24T05:48:06;15.50;99.90
54930;DHT22;40833;53.238;6.576;2023-08-24T05:50:33;16.20;99.90
54930;DHT22;40833;53.238;6.576;2023-08-24T05:52:59;15.60;99.90
54930;DHT22;40833;53.238;6.576;2023-08-24T06:00:17;15.80;99.90
54930;DHT22;40833;53.238;6.576;2023-08-24T06:02:43;15.60;99.90
54930;DHT22;40833;53.238;6.576;2023-08-24T06:05:09;15.80;99.90
54930;DHT22;40833;53.238;6.576;2023-08-24T06:07:35;15.90;99.90
54930;DHT22;40833;53.238;6.576;2023-08-24T06:10:01;15.90;99.90
54930;DHT22;40833;53.238;6.576;2023-08-24T06:12:26;16.00;99.90
54930;DHT22;40833;53.238;6.576;2023-08-24T06:14:52;16.30;99.90
54930;DHT22;40833;53.238;6.576;2023-08-24T06:17:18;16.30;99.90
54930;DHT22;40833;53.238;6.576;2023-08-24T06:19:43;16.10;99.90
54930;DHT22;40833;53.238;6.576;2023-08-24T06:22:09;16.30;99.90
54930;DHT22;40833;53.238;6.576;2023-08-24T06:24:35;16.40;99.90
54930;DHT22;40833;53.238;6.576;2023-08-24T06:27:01;16.50;99.90
54930;DHT22;40833;53.238;6.576;2023-08-24T06:29:30;16.50;99.90
54930;DHT22;40833;53.238;6.576;2023-08-24T06:31:56;16.60;99.90
54930;DHT22;40833;53.238;6.576;2023-08-24T06:34:22;16.60;99.90
54930;DHT22;40833;53.238;6.576;2023-08-24T06:36:50;16.60;99.90
54930;DHT22;40833;53.238;6.576;2023-08-24T06:39:16;16.60;99.90
54930;DHT22;40833;53.238;6.576;2023-08-24T06:41:42;16.60;99.90
54930;DHT22;40833;53.238;6.576;2023-08-24T06:44:07;16.70;99.90
54930;DHT22;40833;53.238;6.576;2023-08-24T06:51:26;16.70;99.90
54930;DHT22;40833;53.238;6.576;2023-08-24T06:53:52;16.70;99.90
54930;DHT22;40833;53.238;6.576;2023-08-24T06:56:17;16.80;99.90
54930;DHT22;40833;53.238;6.576;2023-08-24T06:58:44;17.10;99.90
54930;DHT22;40833;53.238;6.576;2023-08-24T07:01:11;16.90;99.90
54930;DHT22;40833;53.238;6.576;2023-08-24T07:03:37;16.90;99.90
54930;DHT22;40833;53.238;6.576;2023-08-24T07:06:05;17.00;99.90
54930;DHT22;40833;53.238;6.576;2023-08-24T07:08:32;17.10;99.90
54930;DHT22;40833;53.238;6.576;2023-08-24T07:10:57;17.10;99.90
54930;DHT22;40833;53.238;6.576;2023-08-24T07:13:23;17.20;99.90
54930;DHT22;40833;53.238;6.576;2023-08-24T07:15:49;17.20;99.90
54930;DHT22;40833;53.238;6.576;2023-08-24T07:18:15;17.20;99.90
54930;DHT22;40833;53.238;6.576;2023-08-24T07:20:41;17.40;99.90
54930;DHT22;40833;53.238;6.576;2023-08-24T07:23:06;17.40;99.90
54930;DHT22;40833;53.238;6.576;2023-08-24T07:25:32;17.50;99.90
54930;DHT22;40833;53.238;6.576;2023-08-24T07:27:58;17.60;99.90
54930;DHT22;40833;53.238;6.576;2023-08-24T07:30:27;17.60;99.90
54930;DHT22;40833;53.238;6.576;2023-08-24T07:32:54;17.70;99.90
54930;DHT22;40833;53.238;6.576;2023-08-24T07:35:20;17.80;99.90
54930;DHT22;40833;53.238;6.576;2023-08-24T07:37:47;17.90;99.90
54930;DHT22;40833;53.238;6.576;2023-08-24T07:40:14;18.00;99.90
54930;DHT22;40833;53.238;6.576;2023-08-24T07:42:47;18.00;99.90
54930;DHT22;40833;53.238;6.576;2023-08-24T07:45:13;18.10;99.90
54930;DHT22;40833;53.238;6.576;2023-08-24T07:47:40;18.20;99.90
54930;DHT22;40833;53.238;6.576;2023-08-24T07:50:08;18.30;99.90
54930;DHT22;40833;53.238;6.576;2023-08-24T07:55:00;18.40;99.90
54930;DHT22;40833;53.238;6.576;2023-08-24T07:57:28;18.50;99.90
54930;DHT22;40833;53.238;6.576;2023-08-24T07:59:54;18.50;99.90
54930;DHT22;40833;53.238;6.576;2023-08-24T08:02:20;18.60;99.90
54930;DHT22;40833;53.238;6.576;2023-08-24T08:04:46;18.70;99.90
54930;DHT22;40833;53.238;6.576;2023-08-24T08:07:11;18.80;99.90
54930;DHT22;40833;53.238;6.576;2023-08-24T08:09:38;18.90;99.90
54930;DHT22;40833;53.238;6.576;2023-08-24T08:12:04;19.00;99.90
54930;DHT22;40833;53.238;6.576;2023-08-24T08:14:30;19.00;99.90
54930;DHT22;40833;53.238;6.576;2023-08-24T08:16:58;19.10;99.90
54930;DHT22;40833;53.238;6.576;2023-08-24T08:19:24;19.20;99.90
54930;DHT22;40833;53.238;6.576;2023-08-24T08:21:53;19.30;99.90
54930;DHT22;40833;53.238;6.576;2023-08-24T08:24:19;19.40;99.90
54930;DHT22;40833;53.238;6.576;2023-08-24T08:26:45;19.50;99.90
54930;DHT22;40833;53.238;6.576;2023-08-24T08:29:10;19.50;99.90
54930;DHT22;40833;53.238;6.576;2023-08-24T08:31:36;19.60;99.90
54930;DHT22;40833;53.238;6.576;2023-08-24T08:34:02;19.80;99.90
54930;DHT22;40833;53.238;6.576;2023-08-24T08:36:30;19.80;99.90
54930;DHT22;40833;53.238;6.576;2023-08-24T08:39:00;19.90;99.90
54930;DHT22;40833;53.238;6.576;2023-08-24T08:41:31;20.00;99.90
54930;DHT22;40833;53.238;6.576;2023-08-24T08:43:59;20.10;99.90
54930;DHT22;40833;53.238;6.576;2023-08-24T08:46:25;20.20;99.90
54930;DHT22;40833;53.238;6.576;2023-08-24T08:48:52;20.30;99.90
54930;DHT22;40833;53.238;6.576;2023-08-24T08:51:19;20.40;99.90
54930;DHT22;40833;53.238;6.576;2023-08-24T08:53:45;20.50;99.90
54930;DHT22;40833;53.238;6.576;2023-08-24T08:56:11;20.60;99.90
54930;DHT22;40833;53.238;6.576;2023-08-24T08:58:37;20.70;99.90
54930;DHT22;40833;53.238;6.576;2023-08-24T09:01:04;20.80;99.90
54930;DHT22;40833;53.238;6.576;2023-08-24T09:03:31;20.90;99.90
54930;DHT22;40833;53.238;6.576;2023-08-24T09:05:57;20.90;99.90
54930;DHT22;40833;53.238;6.576;2023-08-24T09:08:27;20.90;99.90
54930;DHT22;40833;53.238;6.576;2023-08-24T09:10:54;20.90;99.90
54930;DHT22;40833;53.238;6.576;2023-08-24T09:13:20;20.90;99.90
54930;DHT22;40833;53.238;6.576;2023-08-24T09:15:46;21.00;99.90
54930;DHT22;40833;53.238;6.576;2023-08-24T09:18:12;21.00;99.90
54930;DHT22;40833;53.238;6.576;2023-08-24T09:20:38;21.20;99.90
54930;DHT22;40833;53.238;6.576;2023-08-24T09:23:03;21.40;99.90
54930;DHT22;40833;53.238;6.576;2023-08-24T09:25:29;21.50;99.90
54930;DHT22;40833;53.238;6.576;2023-08-24T09:27:58;21.70;99.90
54930;DHT22;40833;53.238;6.576;2023-08-24T09:30:31;21.90;99.90
54930;DHT22;40833;53.238;6.576;2023-08-24T09:33:06;22.10;99.90
54930;DHT22;40833;53.238;6.576;2023-08-24T09:35:35;22.20;99.90
54930;DHT22;40833;53.238;6.576;2023-08-24T09:38:17;22.20;99.90
54930;DHT22;40833;53.238;6.576;2023-08-24T09:40:47;22.30;99.90
54930;DHT22;40833;53.238;6.576;2023-08-24T09:43:16;22.30;99.90
54930;DHT22;40833;53.238;6.576;2023-08-24T09:48:18;22.40;99.90
54930;DHT22;40833;53.238;6.576;2023-08-24T09:50:49;22.40;99.90
54930;DHT22;40833;53.238;6.576;2023-08-24T09:53:22;22.40;99.90
54930;DHT22;40833;53.238;6.576;2023-08-24T09:56:09;22.40;99.90
54930;DHT22;40833;53.238;6.576;2023-08-24T09:58:34;22.30;99.90
54930;DHT22;40833;53.238;6.576;2023-08-24T10:01:01;22.40;99.90
54930;DHT22;40833;53.238;6.576;2023-08-24T10:03:27;22.30;99.90
54930;DHT22;40833;53.238;6.576;2023-08-24T10:05:56;22.30;99.90
54930;DHT22;40833;53.238;6.576;2023-08-24T10:08:36;22.40;99.90
54930;DHT22;40833;53.238;6.576;2023-08-24T10:11:03;22.30;99.90
54930;DHT22;40833;53.238;6.576;2023-08-24T10:13:43;22.30;99.90
54930;DHT22;40833;53.238;6.576;2023-08-24T10:16:12;22.30;99.90
54930;DHT22;40833;53.238;6.576;2023-08-24T10:18:40;22.20;99.90
54930;DHT22;40833;53.238;6.576;2023-08-24T10:21:07;22.20;99.90
54930;DHT22;40833;53.238;6.576;2023-08-24T10:23:34;22.20;99.90
54930;DHT22;40833;53.238;6.576;2023-08-24T10:26:02;22.10;99.90
54930;DHT22;40833;53.238;6.576;2023-08-24T10:28:29;22.10;99.90
54930;DHT22;40833;53.238;6.576;2023-08-24T10:30:59;22.10;99.90
54930;DHT22;40833;53.238;6.576;2023-08-24T10:33:25;22.10;99.90
54930;DHT22;40833;53.238;6.576;2023-08-24T10:35:52;22.10;99.90
54930;DHT22;40833;53.238;6.576;2023-08-24T10:38:40;22.00;99.90
54930;DHT22;40833;53.238;6.576;2023-08-24T10:41:08;22.00;99.90
54930;DHT22;40833;53.238;6.576;2023-08-24T10:43:37;22.00;99.90
54930;DHT22;40833;53.238;6.576;2023-08-24T10:46:03;22.00;99.90
54930;DHT22;40833;53.238;6.576;2023-08-24T10:51:17;22.00;99.90
54930;DHT22;40833;53.238;6.576;2023-08-24T10:56:21;21.90;99.90
54930;DHT22;40833;53.238;6.576;2023-08-24T10:59:13;21.80;99.90
54930;DHT22;40833;53.238;6.576;2023-08-24T11:01:43;21.80;99.90
54930;DHT22;40833;53.238;6.576;2023-08-24T11:04:19;21.80;99.90
54930;DHT22;40833;53.238;6.576;2023-08-24T11:07:11;21.70;99.90
54930;DHT22;40833;53.238;6.576;2023-08-24T11:09:47;21.70;99.90
54930;DHT22;40833;53.238;6.576;2023-08-24T11:12:13;21.70;99.90
54930;DHT22;40833;53.238;6.576;2023-08-24T11:14:52;21.70;99.90
54930;DHT22;40833;53.238;6.576;2023-08-24T11:17:24;21.60;99.90
54930;DHT22;40833;53.238;6.576;2023-08-24T11:19:55;21.60;99.90
54930;DHT22;40833;53.238;6.576;2023-08-24T11:22:21;21.60;99.90
54930;DHT22;40833;53.238;6.576;2023-08-24T11:24:47;21.60;99.90
54930;DHT22;40833;53.238;6.576;2023-08-24T11:27:13;21.70;99.90
54930;DHT22;40833;53.238;6.576;2023-08-24T11:29:38;21.70;99.90
54930;DHT22;40833;53.238;6.576;2023-08-24T11:32:04;21.70;99.90
54930;DHT22;40833;53.238;6.576;2023-08-24T11:34:30;21.70;99.90
54930;DHT22;40833;53.238;6.576;2023-08-24T11:36:57;21.70;99.90
54930;DHT22;40833;53.238;6.576;2023-08-24T11:39:23;21.70;99.90
54930;DHT22;40833;53.238;6.576;2023-08-24T11:42:04;21.70;99.90
54930;DHT22;40833;53.238;6.576;2023-08-24T11:44:47;21.80;99.90
54930;DHT22;40833;53.238;6.576;2023-08-24T11:47:14;21.80;99.90
54930;DHT22;40833;53.238;6.576;2023-08-24T11:49:40;21.80;99.90
54930;DHT22;40833;53.238;6.576;2023-08-24T11:52:06;21.90;99.90
54930;DHT22;40833;53.238;6.576;2023-08-24T11:54:32;22.00;99.90
54930;DHT22;40833;53.238;6.576;2023-08-24T11:56:58;22.10;99.90
54930;DHT22;40833;53.238;6.576;2023-08-24T11:59:24;22.20;99.90
54930;DHT22;40833;53.238;6.576;2023-08-24T12:01:51;22.30;99.90
54930;DHT22;40833;53.238;6.576;2023-08-24T12:04:18;22.30;99.90
54930;DHT22;40833;53.238;6.576;2023-08-24T12:06:44;22.30;99.90
54930;DHT22;40833;53.238;6.576;2023-08-24T12:09:10;22.30;99.90
54930;DHT22;40833;53.238;6.576;2023-08-24T12:11:38;22.40;99.90
54930;DHT22;40833;53.238;6.576;2023-08-24T12:14:05;22.50;99.90
54930;DHT22;40833;53.238;6.576;2023-08-24T12:16:33;22.50;99.90
54930;DHT22;40833;53.238;6.576;2023-08-24T12:19:00;22.50;99.90
54930;DHT22;40833;53.238;6.576;2023-08-24T12:21:29;22.50;99.90
54930;DHT22;40833;53.238;6.576;2023-08-24T12:23:59;22.50;99.90
54930;DHT22;40833;53.238;6.576;2023-08-24T12:26:26;22.50;99.90
54930;DHT22;40833;53.238;6.576;2023-08-24T12:28:53;22.50;99.90
54930;DHT22;40833;53.238;6.576;2023-08-24T12:31:19;22.50;99.90
54930;DHT22;40833;53.238;6.576;2023-08-24T12:33:45;22.50;99.90
54930;DHT22;40833;53.238;6.576;2023-08-24T12:36:12;22.60;99.90
54930;DHT22;40833;53.238;6.576;2023-08-24T12:38:37;22.60;99.90
54930;DHT22;40833;53.238;6.576;2023-08-24T12:41:04;22.60;99.90
54930;DHT22;40833;53.238;6.576;2023-08-24T12:43:29;22.60;99.90
54930;DHT22;40833;53.238;6.576;2023-08-24T12:45:55;22.60;99.90
54930;DHT22;40833;53.238;6.576;2023-08-24T12:48:21;22.60;99.90
54930;DHT22;40833;53.238;6.576;2023-08-24T12:50:47;22.70;99.90
54930;DHT22;40833;53.238;6.576;2023-08-24T12:53:13;22.70;99.90
54930;DHT22;40833;53.238;6.576;2023-08-24T12:55:39;22.80;99.90
54930;DHT22;40833;53.238;6.576;2023-08-24T12:58:05;22.90;99.90
54930;DHT22;40833;53.238;6.576;2023-08-24T13:00:31;22.90;99.90
54930;DHT22;40833;53.238;6.576;2023-08-24T13:02:57;23.00;99.90
54930;DHT22;40833;53.238;6.576;2023-08-24T13:05:23;22.90;99.90
54930;DHT22;40833;53.238;6.576;2023-08-24T13:07:48;23.00;99.90
54930;DHT22;40833;53.238;6.576;2023-08-24T13:10:14;22.90;99.90
54930;DHT22;40833;53.238;6.576;2023-08-24T13:12:40;23.00;99.90
54930;DHT22;40833;53.238;6.576;2023-08-24T13:15:06;22.90;99.90
54930;DHT22;40833;53.238;6.576;2023-08-24T13:17:32;22.90;99.90
54930;DHT22;40833;53.238;6.576;2023-08-24T13:19:58;23.00;99.90
54930;DHT22;40833;53.238;6.576;2023-08-24T13:22:23;22.90;99.90
54930;DHT22;40833;53.238;6.576;2023-08-24T13:24:50;22.90;99.90
54930;DHT22;40833;53.238;6.576;2023-08-24T13:27:16;22.80;99.90
54930;DHT22;40833;53.238;6.576;2023-08-24T13:29:42;22.80;99.90
54930;DHT22;40833;53.238;6.576;2023-08-24T13:32:07;22.80;99.90
54930;DHT22;40833;53.238;6.576;2023-08-24T13:34:33;22.80;99.90
54930;DHT22;40833;53.238;6.576;2023-08-24T13:36:59;22.80;99.90
54930;DHT22;40833;53.238;6.576;2023-08-24T13:39:26;22.90;99.90
54930;DHT22;40833;53.238;6.576;2023-08-24T13:41:56;22.90;99.90
54930;DHT22;40833;53.238;6.576;2023-08-24T13:44:22;22.90;99.90
54930;DHT22;40833;53.238;6.576;2023-08-24T13:46:48;22.90;99.90
54930;DHT22;40833;53.238;6.576;2023-08-24T13:49:14;22.90;99.90
54930;DHT22;40833;53.238;6.576;2023-08-24T13:51:40;22.90;99.90
54930;DHT22;40833;53.238;6.576;2023-08-24T13:54:16;22.90;99.90
54930;DHT22;40833;53.238;6.576;2023-08-24T13:56:46;22.90;99.90
54930;DHT22;40833;53.238;6.576;2023-08-24T13:59:13;22.80;99.90
54930;DHT22;40833;53.238;6.576;2023-08-24T14:01:42;22.90;99.90
54930;DHT22;40833;53.238;6.576;2023-08-24T14:04:08;22.80;99.90
54930;DHT22;40833;53.238;6.576;2023-08-24T14:06:34;22.90;99.90
54930;DHT22;40833;53.238;6.576;2023-08-24T14:09:05;22.90;99.90
54930;DHT22;40833;53.238;6.576;2023-08-24T14:11:32;23.00;99.90
54930;DHT22;40833;53.238;6.576;2023-08-24T14:13:58;23.00;99.90
54930;DHT22;40833;53.238;6.576;2023-08-24T14:16:25;23.10;99.90
54930;DHT22;40833;53.238;6.576;2023-08-24T14:18:51;23.10;99.90
54930;DHT22;40833;53.238;6.576;2023-08-24T14:21:18;23.00;99.90
54930;DHT22;40833;53.238;6.576;2023-08-24T14:23:46;23.10;99.90
54930;DHT22;40833;53.238;6.576;2023-08-24T14:26:12;23.10;99.90
54930;DHT22;40833;53.238;6.576;2023-08-24T14:28:57;23.40;99.90
54930;DHT22;40833;53.238;6.576;2023-08-24T14:31:28;23.00;99.90
54930;DHT22;40833;53.238;6.576;2023-08-24T14:33:55;23.00;99.90
54930;DHT22;40833;53.238;6.576;2023-08-24T14:36:21;22.90;99.90
54930;DHT22;40833;53.238;6.576;2023-08-24T14:38:48;22.80;99.90
54930;DHT22;40833;53.238;6.576;2023-08-24T14:41:14;22.70;99.90
54930;DHT22;40833;53.238;6.576;2023-08-24T14:43:40;22.70;99.90
54930;DHT22;40833;53.238;6.576;2023-08-24T14:46:06;22.60;99.90
54930;DHT22;40833;53.238;6.576;2023-08-24T14:48:33;22.60;99.90
54930;DHT22;40833;53.238;6.576;2023-08-24T14:50:58;22.60;99.90
54930;DHT22;40833;53.238;6.576;2023-08-24T14:53:25;22.60;99.90
54930;DHT22;40833;53.238;6.576;2023-08-24T14:55:53;22.60;99.90
54930;DHT22;40833;53.238;6.576;2023-08-24T14:58:23;22.70;99.90
54930;DHT22;40833;53.238;6.576;2023-08-24T15:00:49;22.70;99.90
54930;DHT22;40833;53.238;6.576;2023-08-24T15:03:16;22.70;99.90
54930;DHT22;40833;53.238;6.576;2023-08-24T15:05:46;22.70;99.90
54930;DHT22;40833;53.238;6.576;2023-08-24T15:08:13;22.80;99.90
54930;DHT22;40833;53.238;6.576;2023-08-24T15:10:39;22.80;99.90
54930;DHT22;40833;53.238;6.576;2023-08-24T15:13:05;22.80;99.90
54930;DHT22;40833;53.238;6.576;2023-08-24T15:15:40;22.80;99.90
54930;DHT22;40833;53.238;6.576;2023-08-24T15:18:06;22.70;99.90
54930;DHT22;40833;53.238;6.576;2023-08-24T15:20:31;22.80;99.90
54930;DHT22;40833;53.238;6.576;2023-08-24T15:22:59;22.80;99.90
54930;DHT22;40833;53.238;6.576;2023-08-24T15:25:25;22.80;99.90
54930;DHT22;40833;53.238;6.576;2023-08-24T15:27:51;22.70;99.90
54930;DHT22;40833;53.238;6.576;2023-08-24T15:30:17;22.70;99.90
54930;DHT22;40833;53.238;6.576;2023-08-24T15:32:43;22.80;99.90
54930;DHT22;40833;53.238;6.576;2023-08-24T15:35:08;22.80;99.90
54930;DHT22;40833;53.238;6.576;2023-08-24T15:37:34;22.80;99.90
54930;DHT22;40833;53.238;6.576;2023-08-24T15:40:00;22.80;99.90
54930;DHT22;40833;53.238;6.576;2023-08-24T15:42:26;22.90;99.90
54930;DHT22;40833;53.238;6.576;2023-08-24T15:44:52;22.90;99.90
54930;DHT22;40833;53.238;6.576;2023-08-24T15:47:17;22.90;99.90
54930;DHT22;40833;53.238;6.576;2023-08-24T15:49:43;23.00;99.90
54930;DHT22;40833;53.238;6.576;2023-08-24T15:52:09;23.00;99.90
54930;DHT22;40833;53.238;6.576;2023-08-24T15:54:34;23.00;99.90
54930;DHT22;40833;53.238;6.576;2023-08-24T15:57:00;22.90;99.90